createdAt,value
2017-10-29T00:00:45.535Z,23.10
2017-10-29T00:03:13.349Z,20.83
2017-10-29T00:05:41.167Z,32.70
2017-10-29T00:08:08.981Z,35.30
2017-10-29T00:10:36.790Z,31.03
2017-10-29T00:13:04.613Z,31.30
2017-10-29T00:15:32.425Z,27.57
2017-10-29T00:18:00.257Z,20.40
2017-10-29T00:20:28.064Z,20.00
2017-10-29T00:22:55.893Z,15.97
2017-10-29T00:25:23.748Z,18.43
2017-10-29T00:27:51.573Z,26.70
2017-10-29T00:30:19.422Z,20.23
2017-10-29T00:32:47.245Z,22.50
2017-10-29T00:35:15.090Z,20.93
2017-10-29T00:37:42.955Z,17.33
2017-10-29T00:40:10.801Z,23.80
2017-10-29T00:42:38.654Z,20.77
2017-10-29T00:45:06.510Z,31.27
2017-10-29T00:47:34.324Z,28.27
2017-10-29T00:50:02.169Z,32.13
2017-10-29T00:52:29.981Z,23.10
2017-10-29T00:54:57.813Z,29.10
2017-10-29T00:57:25.655Z,29.23
2017-10-29T00:59:53.505Z,26.17
2017-10-29T01:02:21.361Z,23.10
2017-10-29T01:04:49.186Z,32.00
2017-10-29T01:07:17.025Z,37.53
2017-10-29T01:09:44.837Z,19.60
2017-10-29T01:12:12.717Z,16.07
2017-10-29T01:14:40.545Z,27.77
2017-10-29T01:17:08.360Z,35.60
2017-10-29T01:19:36.170Z,32.60
2017-10-29T01:22:04.024Z,21.93
2017-10-29T01:24:31.856Z,28.43
2017-10-29T01:26:59.682Z,29.93
2017-10-29T01:29:27.522Z,30.50
2017-10-29T01:31:55.362Z,48.83
2017-10-29T01:34:23.213Z,40.13
2017-10-29T01:36:51.059Z,34.43
2017-10-29T01:39:18.892Z,44.73
2017-10-29T01:41:46.731Z,37.73
2017-10-29T01:44:14.561Z,26.77
2017-10-29T01:46:42.400Z,40.87
2017-10-29T01:49:10.237Z,29.93
2017-10-29T01:51:38.073Z,38.43
2017-10-29T01:54:05.913Z,24.40
2017-10-29T01:56:33.755Z,44.43
2017-10-29T01:59:01.605Z,44.63
2017-10-29T02:01:29.440Z,34.73
2017-10-29T02:03:57.265Z,43.87
2017-10-29T02:06:25.081Z,44.97
2017-10-29T02:08:52.951Z,34.17
2017-10-29T02:11:20.773Z,38.90
2017-10-29T02:13:48.582Z,35.93
2017-10-29T02:16:16.372Z,46.07
2017-10-29T02:18:44.173Z,67.87
2017-10-29T02:21:11.945Z,48.13
2017-10-29T02:23:39.767Z,50.30
2017-10-29T02:26:07.561Z,28.70
2017-10-29T02:28:35.378Z,41.77
2017-10-29T02:31:03.160Z,41.37
2017-10-29T02:33:30.984Z,44.33
2017-10-29T02:35:58.837Z,42.93
2017-10-29T02:38:26.651Z,43.90
2017-10-29T02:40:54.473Z,34.43
2017-10-29T02:43:22.294Z,52.47
2017-10-29T02:45:50.089Z,28.10
2017-10-29T02:48:17.875Z,54.33
2017-10-29T02:50:45.673Z,20.73
2017-10-29T02:53:13.458Z,26.53
2017-10-29T02:55:41.284Z,34.53
2017-10-29T02:58:09.060Z,32.83
2017-10-29T03:00:36.852Z,34.63
2017-10-29T03:03:04.641Z,40.93
2017-10-29T03:05:32.421Z,69.00
2017-10-29T03:08:00.201Z,52.97
2017-10-29T03:10:28.008Z,75.90
2017-10-29T03:12:55.786Z,70.13
2017-10-29T03:15:23.568Z,87.00
2017-10-29T03:17:51.345Z,65.03
2017-10-29T03:20:19.131Z,54.70
2017-10-29T03:22:46.925Z,73.60
2017-10-29T03:25:14.735Z,46.30
2017-10-29T03:27:42.569Z,56.97
2017-10-29T03:30:10.393Z,67.20
2017-10-29T03:32:38.189Z,48.73
2017-10-29T03:35:06.000Z,46.63
2017-10-29T03:37:33.825Z,52.23
2017-10-29T03:40:01.691Z,61.23
2017-10-29T03:42:29.509Z,62.87
2017-10-29T03:44:57.320Z,56.10
2017-10-29T03:47:25.097Z,55.97
2017-10-29T03:49:52.895Z,61.33
2017-10-29T03:52:20.728Z,52.07
2017-10-29T03:54:48.562Z,49.93
2017-10-29T03:57:16.375Z,29.50
2017-10-29T03:59:44.164Z,56.30
2017-10-29T04:02:11.980Z,42.50
2017-10-29T04:04:39.776Z,38.70
2017-10-29T04:07:07.626Z,28.63
2017-10-29T04:09:35.439Z,53.57
2017-10-29T04:12:03.249Z,57.33
2017-10-29T04:14:31.034Z,34.33
2017-10-29T04:16:58.921Z,61.37
2017-10-29T04:19:26.719Z,57.93
2017-10-29T04:21:54.536Z,34.47
2017-10-29T04:24:22.342Z,47.63
2017-10-29T04:26:50.142Z,48.00
2017-10-29T04:29:17.928Z,47.33
2017-10-29T04:31:45.734Z,51.03
2017-10-29T04:34:13.501Z,73.50
2017-10-29T04:36:41.281Z,38.60
2017-10-29T04:39:09.056Z,47.20
2017-10-29T04:41:36.862Z,55.83
2017-10-29T04:44:04.655Z,48.30
2017-10-29T04:46:32.529Z,37.60
2017-10-29T04:49:00.340Z,44.50
2017-10-29T04:51:28.149Z,48.27
2017-10-29T04:53:55.929Z,55.13
2017-10-29T04:56:23.766Z,57.53
2017-10-29T04:58:51.580Z,59.00
2017-10-29T05:01:19.373Z,61.53
2017-10-29T05:03:47.164Z,60.07
2017-10-29T05:06:14.961Z,57.77
2017-10-29T05:08:42.781Z,76.53
2017-10-29T05:11:10.599Z,50.97
2017-10-29T05:13:38.393Z,69.27
2017-10-29T05:16:06.209Z,50.67
2017-10-29T05:18:34.081Z,57.60
2017-10-29T05:21:01.897Z,69.63
2017-10-29T05:23:29.703Z,60.00
2017-10-29T05:25:57.529Z,82.03
2017-10-29T05:28:25.333Z,52.53
2017-10-29T05:30:53.143Z,65.03
2017-10-29T05:33:21.506Z,66.70
2017-10-29T05:35:49.461Z,58.43
2017-10-29T05:38:17.636Z,58.33
2017-10-29T05:40:45.726Z,54.57
2017-10-29T05:43:13.716Z,62.23
2017-10-29T05:45:41.638Z,54.10
2017-10-29T05:48:09.463Z,58.63
2017-10-29T05:50:37.277Z,59.60
2017-10-29T05:53:05.069Z,76.00
2017-10-29T05:55:32.874Z,58.07
2017-10-29T05:58:00.665Z,51.53
2017-10-29T06:00:28.467Z,41.00
2017-10-29T06:02:56.277Z,34.20
2017-10-29T06:05:24.092Z,21.27
2017-10-29T06:07:51.876Z,16.07
2017-10-29T06:10:19.708Z,18.57
2017-10-29T06:12:47.603Z,27.00
2017-10-29T06:15:15.410Z,12.17
2017-10-29T06:17:43.245Z,8.40
2017-10-29T06:22:45.505Z,5.80
2017-10-29T06:25:13.284Z,10.30
2017-10-29T06:27:41.085Z,7.20
2017-10-29T06:30:08.922Z,5.20
2017-10-29T06:32:36.706Z,6.47
2017-10-29T06:35:04.517Z,4.57
2017-10-29T06:37:32.335Z,10.07
2017-10-29T06:40:00.124Z,8.30
2017-10-29T06:42:27.913Z,7.80
2017-10-29T06:44:55.734Z,31.30
2017-10-29T06:47:23.513Z,3.03
2017-10-29T06:49:51.289Z,5.23
2017-10-29T06:52:19.073Z,3.63
2017-10-29T06:54:46.892Z,4.63
2017-10-29T06:57:14.712Z,2.10
2017-10-29T06:59:42.530Z,6.77
2017-10-29T07:02:10.337Z,6.57
2017-10-29T07:04:38.186Z,8.50
2017-10-29T07:07:06.028Z,8.90
2017-10-29T07:09:33.835Z,8.90
2017-10-29T07:12:01.647Z,11.00
2017-10-29T07:14:29.428Z,6.03
2017-10-29T07:16:57.213Z,3.10
2017-10-29T07:19:25.002Z,8.30
2017-10-29T07:21:52.797Z,11.67
2017-10-29T07:24:20.649Z,3.77
2017-10-29T07:26:48.456Z,4.13
2017-10-29T07:29:16.292Z,7.10
2017-10-29T07:31:44.113Z,11.93
2017-10-29T07:34:11.978Z,11.83
2017-10-29T07:36:39.798Z,11.13
2017-10-29T07:39:07.600Z,11.80
2017-10-29T07:41:35.397Z,10.70
2017-10-29T07:44:03.198Z,8.43
2017-10-29T07:46:30.990Z,12.97
2017-10-29T07:48:58.813Z,7.73
2017-10-29T07:51:26.624Z,4.83
2017-10-29T07:53:54.422Z,7.33
2017-10-29T07:56:22.204Z,8.30
2017-10-29T07:58:50.019Z,5.97
2017-10-29T08:01:17.853Z,7.63
2017-10-29T08:03:45.717Z,2.10
2017-10-29T08:06:13.541Z,9.30
2017-10-29T08:08:41.336Z,2.00
2017-10-29T08:11:09.172Z,4.30
2017-10-29T08:13:36.989Z,5.03
2017-10-29T08:16:04.834Z,1.77
2017-10-29T08:18:32.637Z,4.73
2017-10-29T08:21:00.432Z,1.23
2017-10-29T08:23:28.249Z,3.47
2017-10-29T08:25:56.175Z,2.63
2017-10-29T08:28:23.985Z,7.17
2017-10-29T08:30:51.790Z,3.23
2017-10-29T08:33:19.603Z,1.33
2017-10-29T08:35:47.420Z,2.30
2017-10-29T08:38:15.256Z,2.87
2017-10-29T08:40:43.079Z,3.10
2017-10-29T08:43:10.862Z,3.90
2017-10-29T08:45:38.664Z,4.30
2017-10-29T08:48:06.505Z,9.80
2017-10-29T08:50:34.281Z,4.67
2017-10-29T08:53:02.148Z,10.90
2017-10-29T08:55:29.919Z,4.13
2017-10-29T08:57:57.694Z,3.70
2017-10-29T09:00:25.592Z,4.63
2017-10-29T09:02:53.393Z,7.97
2017-10-29T09:05:21.232Z,2.73
2017-10-29T09:07:49.021Z,5.33
2017-10-29T09:10:16.833Z,6.03
2017-10-29T09:12:44.625Z,1.43
2017-10-29T09:15:12.412Z,4.03
2017-10-29T09:17:40.250Z,1.87
2017-10-29T09:20:08.043Z,3.20
2017-10-29T09:22:35.830Z,6.23
2017-10-29T09:25:03.629Z,3.97
2017-10-29T09:27:31.412Z,4.03
2017-10-29T09:29:59.204Z,7.80
2017-10-29T09:32:26.992Z,8.00
2017-10-29T09:34:54.832Z,6.37
2017-10-29T09:37:22.625Z,7.90
2017-10-29T09:39:50.437Z,8.47
2017-10-29T09:42:18.220Z,7.27
2017-10-29T09:44:46.027Z,11.43
2017-10-29T09:47:13.821Z,11.70
2017-10-29T09:49:41.650Z,14.70
2017-10-29T09:52:09.469Z,12.40
2017-10-29T09:54:37.244Z,14.30
2017-10-29T09:57:05.064Z,11.67
2017-10-29T09:59:32.849Z,7.60
2017-10-29T10:02:00.660Z,7.57
2017-10-29T10:04:28.465Z,13.00
2017-10-29T10:06:56.274Z,9.20
2017-10-29T10:09:24.114Z,10.13
2017-10-29T10:11:51.925Z,10.23
2017-10-29T10:14:19.731Z,8.17
2017-10-29T10:16:47.538Z,7.57
2017-10-29T10:19:15.320Z,4.13
2017-10-29T10:21:43.105Z,5.40
2017-10-29T10:24:10.917Z,5.43
2017-10-29T10:26:38.749Z,10.20
2017-10-29T10:29:06.542Z,7.20
2017-10-29T10:31:34.325Z,11.10
2017-10-29T10:34:02.134Z,24.87
2017-10-29T10:36:29.939Z,6.67
2017-10-29T10:38:57.804Z,8.37
2017-10-29T10:41:25.601Z,11.03
2017-10-29T10:43:53.389Z,6.37
2017-10-29T10:46:21.171Z,5.40
2017-10-29T10:48:48.974Z,13.90
2017-10-29T10:51:16.756Z,6.53
2017-10-29T10:53:44.545Z,8.67
2017-10-29T10:56:12.329Z,4.57
2017-10-29T10:58:40.112Z,6.97
2017-10-29T11:01:07.892Z,9.93
2017-10-29T11:03:35.734Z,8.30
2017-10-29T11:06:03.531Z,10.40
2017-10-29T11:08:31.377Z,5.33
2017-10-29T11:10:59.161Z,7.63
2017-10-29T11:13:26.947Z,7.50
2017-10-29T11:15:54.733Z,7.20
2017-10-29T11:18:22.516Z,6.13
2017-10-29T11:20:50.292Z,4.13
2017-10-29T11:23:18.083Z,3.33
2017-10-29T11:25:45.927Z,12.33
2017-10-29T11:28:13.721Z,8.17
2017-10-29T11:30:41.533Z,10.20
2017-10-29T11:33:09.369Z,5.20
2017-10-29T11:35:37.200Z,2.70
2017-10-29T11:38:05.023Z,3.30
2017-10-29T11:40:32.867Z,6.83
2017-10-29T11:43:00.727Z,4.27
2017-10-29T11:45:28.585Z,10.30
2017-10-29T11:47:56.414Z,6.13
2017-10-29T11:50:24.228Z,3.37
2017-10-29T11:52:52.082Z,8.33
2017-10-29T11:55:19.895Z,3.70
2017-10-29T11:57:47.665Z,4.97
2017-10-29T12:00:15.453Z,11.33
2017-10-29T12:02:43.230Z,5.50
2017-10-29T12:05:11.081Z,4.30
2017-10-29T12:07:38.884Z,5.40
2017-10-29T12:10:06.669Z,1.93
2017-10-29T12:12:34.472Z,4.77
2017-10-29T12:15:02.286Z,5.20
2017-10-29T12:17:30.067Z,4.63
2017-10-29T12:19:57.915Z,7.63
2017-10-29T12:22:25.705Z,7.00
2017-10-29T12:24:53.521Z,5.37
2017-10-29T12:27:21.312Z,3.23
2017-10-29T12:29:49.105Z,5.80
2017-10-29T12:32:16.948Z,2.10
2017-10-29T12:34:44.752Z,2.80
2017-10-29T12:37:12.545Z,2.50
2017-10-29T12:39:40.366Z,9.73
2017-10-29T12:42:08.156Z,3.37
2017-10-29T12:44:36.017Z,1.10
2017-10-29T12:47:03.809Z,6.40
2017-10-29T12:49:31.647Z,2.83
2017-10-29T12:51:59.450Z,12.57
2017-10-29T12:54:27.251Z,0.90
2017-10-29T12:56:55.051Z,1.10
2017-10-29T12:59:22.876Z,2.03
2017-10-29T13:01:50.697Z,1.47
2017-10-29T13:04:18.531Z,9.70
2017-10-29T13:06:46.333Z,1.20
2017-10-29T13:09:14.112Z,2.03
2017-10-29T13:11:41.945Z,2.10
2017-10-29T13:14:09.733Z,3.23
2017-10-29T13:16:37.513Z,4.53
2017-10-29T13:19:05.315Z,6.40
2017-10-29T13:21:33.125Z,1.63
2017-10-29T13:24:00.956Z,4.00
2017-10-29T13:26:28.743Z,5.87
2017-10-29T13:28:56.529Z,2.00
2017-10-29T13:31:24.339Z,4.07
2017-10-29T13:33:52.184Z,10.40
2017-10-29T13:36:19.996Z,2.80
2017-10-29T13:38:47.797Z,5.00
2017-10-29T13:41:15.589Z,4.27
2017-10-29T13:43:43.399Z,13.17
2017-10-29T13:46:11.240Z,1.17
2017-10-29T13:48:39.036Z,6.53
2017-10-29T13:51:06.914Z,4.30
2017-10-29T13:53:34.728Z,2.63
2017-10-29T13:56:02.546Z,11.07
2017-10-29T13:58:30.354Z,4.10
2017-10-29T14:00:58.165Z,8.50
2017-10-29T14:03:25.987Z,3.27
2017-10-29T14:05:53.781Z,5.27
2017-10-29T14:08:21.576Z,11.93
2017-10-29T14:10:49.352Z,9.03
2017-10-29T14:13:17.199Z,2.37
2017-10-29T14:15:45.047Z,3.00
2017-10-29T14:18:12.888Z,5.47
2017-10-29T14:20:40.673Z,3.40
2017-10-29T14:23:08.480Z,3.70
2017-10-29T14:25:36.264Z,11.03
2017-10-29T14:28:04.050Z,1.73
2017-10-29T14:30:31.906Z,12.77
2017-10-29T14:32:59.754Z,4.47
2017-10-29T14:35:27.560Z,5.20
2017-10-29T14:37:55.417Z,9.53
2017-10-29T14:40:23.362Z,8.10
2017-10-29T14:42:51.163Z,12.00
2017-10-29T14:45:18.958Z,8.27
2017-10-29T14:47:46.753Z,10.30
2017-10-29T14:50:14.626Z,8.73
2017-10-29T14:52:42.427Z,6.77
2017-10-29T14:55:10.269Z,11.60
2017-10-29T14:57:38.070Z,10.97
2017-10-29T15:00:05.894Z,9.67
2017-10-29T15:02:33.792Z,9.93
2017-10-29T15:05:01.615Z,11.60
2017-10-29T15:07:29.424Z,15.13
2017-10-29T15:09:57.257Z,16.57
2017-10-29T15:12:25.121Z,92.80
2017-10-29T15:14:52.944Z,39.97
2017-10-29T15:17:20.761Z,50.53
2017-10-29T15:19:48.546Z,13.50
2017-10-29T15:22:16.429Z,18.43
2017-10-29T15:24:44.237Z,14.37
2017-10-29T15:27:12.045Z,24.20
2017-10-29T15:29:39.888Z,13.10
2017-10-29T15:32:07.711Z,19.37
2017-10-29T15:34:35.552Z,22.90
2017-10-29T15:37:03.375Z,10.87
2017-10-29T15:39:31.178Z,11.67
2017-10-29T15:41:58.964Z,13.60
2017-10-29T15:44:26.755Z,19.80
2017-10-29T15:46:54.553Z,115.30
2017-10-29T15:49:22.403Z,40.73
2017-10-29T15:51:50.210Z,22.23
2017-10-29T15:54:18.015Z,14.40
2017-10-29T15:56:45.817Z,17.37
2017-10-29T15:59:13.697Z,10.47
2017-10-29T16:01:41.514Z,15.77
2017-10-29T16:04:09.297Z,21.13
2017-10-29T16:06:37.082Z,10.90
2017-10-29T16:09:04.883Z,16.17
2017-10-29T16:11:32.682Z,15.97
2017-10-29T16:14:01.298Z,27.80
2017-10-29T16:16:29.117Z,39.87
2017-10-29T16:18:56.906Z,16.10
2017-10-29T16:21:24.719Z,20.93
2017-10-29T16:23:52.554Z,20.80
2017-10-29T16:26:20.394Z,14.00
2017-10-29T16:28:48.233Z,21.40
2017-10-29T16:31:16.050Z,11.40
2017-10-29T16:33:43.890Z,12.83
2017-10-29T16:36:11.688Z,19.93
2017-10-29T16:38:39.496Z,26.13
2017-10-29T16:41:07.304Z,18.73
2017-10-29T16:43:35.098Z,22.93
2017-10-29T16:46:02.925Z,19.43
2017-10-29T16:48:30.757Z,24.97
2017-10-29T16:50:58.571Z,22.97
2017-10-29T16:53:26.341Z,15.03
2017-10-29T16:55:54.168Z,22.17
2017-10-29T16:58:22.014Z,16.40
2017-10-29T17:00:49.843Z,16.63
2017-10-29T17:03:17.649Z,12.17
2017-10-29T17:05:45.455Z,20.33
2017-10-29T17:08:13.280Z,25.13
2017-10-29T17:10:41.150Z,19.93
2017-10-29T17:13:08.983Z,25.00
2017-10-29T17:15:36.819Z,11.97
2017-10-29T17:18:04.590Z,12.60
2017-10-29T17:20:32.413Z,19.80
2017-10-29T17:23:00.215Z,15.67
2017-10-29T17:25:28.019Z,20.00
2017-10-29T17:27:55.868Z,19.43
2017-10-29T17:30:23.665Z,18.53
2017-10-29T17:32:51.444Z,12.43
2017-10-29T17:35:19.271Z,12.37
2017-10-29T17:37:47.076Z,22.17
2017-10-29T17:40:14.860Z,17.40
2017-10-29T17:42:42.650Z,22.23
2017-10-29T17:45:10.420Z,16.60
2017-10-29T17:47:38.252Z,25.67
2017-10-29T17:50:06.033Z,17.00
2017-10-29T17:52:33.829Z,21.80
2017-10-29T17:55:01.613Z,14.43
2017-10-29T17:57:29.401Z,13.70
2017-10-29T17:59:57.192Z,19.10
2017-10-29T18:02:24.984Z,17.27
2017-10-29T18:04:52.782Z,19.63
2017-10-29T18:07:20.572Z,26.53
2017-10-29T18:09:48.375Z,14.07
2017-10-29T18:12:16.159Z,15.23
2017-10-29T18:14:43.941Z,20.07
2017-10-29T18:17:11.733Z,18.30
2017-10-29T18:19:39.537Z,28.40
2017-10-29T18:22:07.353Z,28.70
2017-10-29T18:24:35.183Z,21.23
2017-10-29T18:27:02.987Z,25.13
2017-10-29T18:29:30.781Z,22.43
2017-10-29T18:31:58.564Z,20.13
2017-10-29T18:34:26.370Z,22.70
2017-10-29T18:36:54.212Z,35.63
2017-10-29T18:39:22.165Z,26.17
2017-10-29T18:41:50.005Z,19.97
2017-10-29T18:44:17.809Z,34.80
2017-10-29T18:46:45.623Z,19.23
2017-10-29T18:49:13.433Z,16.07
2017-10-29T18:51:41.300Z,25.83
2017-10-29T18:54:09.125Z,28.57
2017-10-29T18:56:37.010Z,22.30
2017-10-29T18:59:04.834Z,25.20
2017-10-29T19:01:32.668Z,26.07
2017-10-29T19:04:00.498Z,22.90
2017-10-29T19:06:28.313Z,22.77
2017-10-29T19:08:56.127Z,32.67
2017-10-29T19:11:23.934Z,20.50
2017-10-29T19:13:51.713Z,36.33
2017-10-29T19:16:19.531Z,26.83
2017-10-29T19:18:47.346Z,30.27
2017-10-29T19:21:15.165Z,34.90
2017-10-29T19:23:42.967Z,17.20
2017-10-29T19:26:10.802Z,18.00
2017-10-29T19:28:38.600Z,36.83
2017-10-29T19:31:06.389Z,21.70
2017-10-29T19:33:34.193Z,34.90
2017-10-29T19:36:01.991Z,35.53
2017-10-29T19:38:29.760Z,38.10
2017-10-29T19:40:57.618Z,24.90
2017-10-29T19:43:25.509Z,46.43
2017-10-29T19:45:53.368Z,43.33
2017-10-29T19:48:21.181Z,30.87
2017-10-29T19:50:48.993Z,22.07
2017-10-29T19:53:16.833Z,29.80
2017-10-29T19:55:44.682Z,37.93
2017-10-29T19:58:12.502Z,26.63
2017-10-29T20:00:40.316Z,34.00
2017-10-29T20:03:08.142Z,44.30
2017-10-29T20:05:35.973Z,33.07
2017-10-29T20:08:03.817Z,23.53
2017-10-29T20:10:31.632Z,36.93
2017-10-29T20:12:59.456Z,26.23
2017-10-29T20:15:27.268Z,24.67
2017-10-29T20:17:55.081Z,30.20
2017-10-29T20:20:22.888Z,30.63
2017-10-29T20:22:50.712Z,30.80
2017-10-29T20:25:18.635Z,23.80
2017-10-29T20:27:46.460Z,30.23
2017-10-29T20:30:14.272Z,35.97
2017-10-29T20:32:42.122Z,30.73
2017-10-29T20:35:09.956Z,39.43
2017-10-29T20:37:37.793Z,39.40
2017-10-29T20:40:05.622Z,38.90
2017-10-29T20:42:33.533Z,26.97
2017-10-29T20:45:01.410Z,43.37
2017-10-29T20:47:29.259Z,31.03
2017-10-29T20:49:57.077Z,44.67
2017-10-29T20:52:24.920Z,23.13
2017-10-29T20:54:52.835Z,31.07
2017-10-29T20:57:20.702Z,19.73
2017-10-29T20:59:48.542Z,23.03
2017-10-29T21:02:16.368Z,32.73
2017-10-29T21:04:44.218Z,40.83
2017-10-29T21:07:12.094Z,36.17
2017-10-29T21:09:39.929Z,30.13
2017-10-29T21:12:07.731Z,34.13
2017-10-29T21:14:35.622Z,33.83
2017-10-29T21:17:03.458Z,32.23
2017-10-29T21:19:31.276Z,43.93
2017-10-29T21:21:59.102Z,25.83
2017-10-29T21:24:26.948Z,65.03
2017-10-29T21:26:54.778Z,19.50
2017-10-29T21:29:22.574Z,35.63
2017-10-29T21:31:50.417Z,26.73
2017-10-29T21:34:18.305Z,37.23
2017-10-29T21:36:46.145Z,37.83
2017-10-29T21:39:13.948Z,36.90
2017-10-29T21:41:41.752Z,40.37
2017-10-29T21:44:09.586Z,36.53
2017-10-29T21:46:37.471Z,21.80
2017-10-29T21:49:05.350Z,33.40
2017-10-29T21:51:33.185Z,26.50
2017-10-29T21:54:01.031Z,30.63
2017-10-29T21:56:28.844Z,30.30
2017-10-29T21:58:56.669Z,48.77
2017-10-29T22:01:24.468Z,38.40
2017-10-29T22:03:52.298Z,23.17
2017-10-29T22:06:20.105Z,18.37
2017-10-29T22:08:47.926Z,27.40
2017-10-29T22:11:15.712Z,43.43
2017-10-29T22:13:43.516Z,15.60
2017-10-29T22:16:11.409Z,22.10
2017-10-29T22:18:39.214Z,28.00
2017-10-29T22:21:07.068Z,46.53
2017-10-29T22:23:34.906Z,31.40
2017-10-29T22:26:02.799Z,28.30
2017-10-29T22:28:30.663Z,18.80
2017-10-29T22:30:58.557Z,23.00
2017-10-29T22:33:26.381Z,21.93
2017-10-29T22:35:54.193Z,26.27
2017-10-29T22:38:22.006Z,28.20
2017-10-29T22:40:49.810Z,21.33
2017-10-29T22:43:17.654Z,29.33
2017-10-29T22:45:45.520Z,16.40
2017-10-29T22:48:13.358Z,15.10
2017-10-29T22:50:41.176Z,31.80
2017-10-29T22:53:08.992Z,28.10
2017-10-29T22:55:36.816Z,41.13
2017-10-29T22:58:04.636Z,29.87
2017-10-29T23:00:32.456Z,45.93
2017-10-29T23:03:00.269Z,18.57
2017-10-29T23:05:34.085Z,26.20
2017-10-29T23:08:07.969Z,34.73
2017-10-29T23:10:35.776Z,26.40
2017-10-29T23:13:03.602Z,23.37
2017-10-29T23:15:31.437Z,35.93
2017-10-29T23:17:59.256Z,32.63
2017-10-29T23:20:27.102Z,17.30
2017-10-29T23:22:54.936Z,25.93
2017-10-29T23:25:22.756Z,27.27
2017-10-29T23:27:50.609Z,20.53
2017-10-29T23:30:18.440Z,32.93
2017-10-29T23:32:46.234Z,26.57
2017-10-29T23:35:14.096Z,26.37
2017-10-29T23:37:41.943Z,21.13
2017-10-29T23:40:09.755Z,24.70
2017-10-29T23:42:37.564Z,17.80
2017-10-29T23:45:05.364Z,14.50
2017-10-29T23:47:33.175Z,34.87
2017-10-29T23:50:00.969Z,20.23
2017-10-29T23:52:28.810Z,17.87
2017-10-29T23:54:56.671Z,26.97
2017-10-29T23:57:24.491Z,20.43
2017-10-29T23:59:52.307Z,14.23
